sensor_id;sensor_type;location;lat;lon;timestamp;temperature;humidity
21169;DHT22;10742;51.816;8.662;2024-01-30T00:00:52;10.10;91.00
21169;DHT22;10742;51.816;8.662;2024-01-30T00:04:13;10.10;91.10
21169;DHT22;10742;51.816;8.662;2024-01-30T00:07:34;10.10;91.20
21169;DHT22;10742;51.816;8.662;2024-01-30T00:10:54;10.10;91.20
21169;DHT22;10742;51.816;8.662;2024-01-30T00:14:16;10.10;91.20
21169;DHT22;10742;51.816;8.662;2024-01-30T00:17:37;10.10;91.30
21169;DHT22;10742;51.816;8.662;2024-01-30T00:20:59;10.10;91.40
21169;DHT22;10742;51.816;8.662;2024-01-30T00:24:20;10.00;91.50
21169;DHT22;10742;51.816;8.662;2024-01-30T00:27:41;10.00;91.50
21169;DHT22;10742;51.816;8.662;2024-01-30T00:31:02;10.00;91.50
21169;DHT22;10742;51.816;8.662;2024-01-30T00:34:23;10.00;91.40
21169;DHT22;10742;51.816;8.662;2024-01-30T00:37:44;10.00;91.40
21169;DHT22;10742;51.816;8.662;2024-01-30T00:41:05;9.90;91.40
21169;DHT22;10742;51.816;8.662;2024-01-30T00:44:26;9.90;91.50
21169;DHT22;10742;51.816;8.662;2024-01-30T00:47:47;9.80;91.60
21169;DHT22;10742;51.816;8.662;2024-01-30T00:51:08;9.80;91.70
21169;DHT22;10742;51.816;8.662;2024-01-30T00:54:29;9.80;91.70
21169;DHT22;10742;51.816;8.662;2024-01-30T00:57:50;9.80;91.70
21169;DHT22;10742;51.816;8.662;2024-01-30T01:01:11;9.70;91.70
21169;DHT22;10742;51.816;8.662;2024-01-30T01:04:32;9.70;91.70
21169;DHT22;10742;51.816;8.662;2024-01-30T01:07:53;9.70;91.80
21169;DHT22;10742;51.816;8.662;2024-01-30T01:11:15;9.70;91.70
21169;DHT22;10742;51.816;8.662;2024-01-30T01:14:36;9.70;91.80
21169;DHT22;10742;51.816;8.662;2024-01-30T01:17:57;9.70;91.80
21169;DHT22;10742;51.816;8.662;2024-01-30T01:21:19;9.70;92.00
21169;DHT22;10742;51.816;8.662;2024-01-30T01:24:40;9.70;92.10
21169;DHT22;10742;51.816;8.662;2024-01-30T01:28:01;9.70;92.10
21169;DHT22;10742;51.816;8.662;2024-01-30T01:31:22;9.60;92.10
21169;DHT22;10742;51.816;8.662;2024-01-30T01:34:45;9.60;92.10
21169;DHT22;10742;51.816;8.662;2024-01-30T01:38:07;9.60;92.20
21169;DHT22;10742;51.816;8.662;2024-01-30T01:41:34;9.60;92.30
21169;DHT22;10742;51.816;8.662;2024-01-30T01:44:55;9.60;92.60
21169;DHT22;10742;51.816;8.662;2024-01-30T01:48:16;9.60;92.30
21169;DHT22;10742;51.816;8.662;2024-01-30T01:51:37;9.60;92.30
21169;DHT22;10742;51.816;8.662;2024-01-30T01:55:01;9.60;92.30
21169;DHT22;10742;51.816;8.662;2024-01-30T01:58:22;9.60;92.30
21169;DHT22;10742;51.816;8.662;2024-01-30T02:01:44;9.60;92.30
21169;DHT22;10742;51.816;8.662;2024-01-30T02:05:08;9.50;92.30
21169;DHT22;10742;51.816;8.662;2024-01-30T02:08:29;9.50;92.40
21169;DHT22;10742;51.816;8.662;2024-01-30T02:11:50;9.50;92.40
21169;DHT22;10742;51.816;8.662;2024-01-30T02:15:13;9.50;92.40
21169;DHT22;10742;51.816;8.662;2024-01-30T02:18:34;9.50;92.50
21169;DHT22;10742;51.816;8.662;2024-01-30T02:21:56;9.50;92.60
21169;DHT22;10742;51.816;8.662;2024-01-30T02:25:17;9.50;92.80
21169;DHT22;10742;51.816;8.662;2024-01-30T02:28:38;9.50;92.80
21169;DHT22;10742;51.816;8.662;2024-01-30T02:32:00;9.40;92.90
21169;DHT22;10742;51.816;8.662;2024-01-30T02:35:21;9.50;93.00
21169;DHT22;10742;51.816;8.662;2024-01-30T02:38:42;9.40;93.00
21169;DHT22;10742;51.816;8.662;2024-01-30T02:42:03;9.40;93.00
21169;DHT22;10742;51.816;8.662;2024-01-30T02:45:24;9.40;92.90
21169;DHT22;10742;51.816;8.662;2024-01-30T02:48:45;9.40;92.90
21169;DHT22;10742;51.816;8.662;2024-01-30T02:52:06;9.40;92.90
21169;DHT22;10742;51.816;8.662;2024-01-30T02:55:27;9.40;92.90
21169;DHT22;10742;51.816;8.662;2024-01-30T02:58:48;9.30;93.00
21169;DHT22;10742;51.816;8.662;2024-01-30T03:02:09;9.30;93.00
21169;DHT22;10742;51.816;8.662;2024-01-30T03:05:31;9.30;93.10
21169;DHT22;10742;51.816;8.662;2024-01-30T03:08:52;9.30;93.30
21169;DHT22;10742;51.816;8.662;2024-01-30T03:12:13;9.30;93.30
21169;DHT22;10742;51.816;8.662;2024-01-30T03:15:33;9.20;93.30
21169;DHT22;10742;51.816;8.662;2024-01-30T03:18:54;9.30;93.20
21169;DHT22;10742;51.816;8.662;2024-01-30T03:22:16;9.20;93.10
21169;DHT22;10742;51.816;8.662;2024-01-30T03:25:37;9.20;93.20
21169;DHT22;10742;51.816;8.662;2024-01-30T03:28:58;9.10;93.20
21169;DHT22;10742;51.816;8.662;2024-01-30T03:32:19;9.20;93.30
21169;DHT22;10742;51.816;8.662;2024-01-30T03:35:40;9.10;93.20
21169;DHT22;10742;51.816;8.662;2024-01-30T03:39:01;9.10;93.20
21169;DHT22;10742;51.816;8.662;2024-01-30T03:42:22;9.00;93.20
21169;DHT22;10742;51.816;8.662;2024-01-30T03:45:43;9.00;93.30
21169;DHT22;10742;51.816;8.662;2024-01-30T03:49:05;9.00;93.30
21169;DHT22;10742;51.816;8.662;2024-01-30T03:52:26;8.90;93.30
21169;DHT22;10742;51.816;8.662;2024-01-30T03:55:47;8.90;93.30
21169;DHT22;10742;51.816;8.662;2024-01-30T03:59:09;8.90;93.40
21169;DHT22;10742;51.816;8.662;2024-01-30T04:02:30;8.90;93.60
21169;DHT22;10742;51.816;8.662;2024-01-30T04:05:52;8.80;93.70
21169;DHT22;10742;51.816;8.662;2024-01-30T04:09:13;8.80;93.90
21169;DHT22;10742;51.816;8.662;2024-01-30T04:12:35;8.80;94.00
21169;DHT22;10742;51.816;8.662;2024-01-30T04:15:58;8.80;94.10
21169;DHT22;10742;51.816;8.662;2024-01-30T04:19:19;8.90;94.20
21169;DHT22;10742;51.816;8.662;2024-01-30T04:22:41;8.80;94.20
21169;DHT22;10742;51.816;8.662;2024-01-30T04:26:02;8.90;94.40
21169;DHT22;10742;51.816;8.662;2024-01-30T04:29:24;8.90;94.40
21169;DHT22;10742;51.816;8.662;2024-01-30T04:32:45;8.90;94.40
21169;DHT22;10742;51.816;8.662;2024-01-30T04:36:08;8.90;94.50
21169;DHT22;10742;51.816;8.662;2024-01-30T04:39:33;8.90;94.70
21169;DHT22;10742;51.816;8.662;2024-01-30T04:42:54;8.90;94.60
21169;DHT22;10742;51.816;8.662;2024-01-30T04:46:15;8.90;94.40
21169;DHT22;10742;51.816;8.662;2024-01-30T04:49:36;8.90;94.30
21169;DHT22;10742;51.816;8.662;2024-01-30T04:52:57;9.00;94.30
21169;DHT22;10742;51.816;8.662;2024-01-30T04:56:18;9.00;94.40
21169;DHT22;10742;51.816;8.662;2024-01-30T04:59:39;8.90;94.60
21169;DHT22;10742;51.816;8.662;2024-01-30T05:03:00;8.90;94.70
21169;DHT22;10742;51.816;8.662;2024-01-30T05:06:28;8.90;94.70
21169;DHT22;10742;51.816;8.662;2024-01-30T05:09:49;9.00;95.10
21169;DHT22;10742;51.816;8.662;2024-01-30T05:13:10;9.00;95.00
21169;DHT22;10742;51.816;8.662;2024-01-30T05:16:34;9.00;95.00
21169;DHT22;10742;51.816;8.662;2024-01-30T05:19:55;9.00;95.10
21169;DHT22;10742;51.816;8.662;2024-01-30T05:23:17;9.00;95.10
21169;DHT22;10742;51.816;8.662;2024-01-30T05:26:38;9.00;95.10
21169;DHT22;10742;51.816;8.662;2024-01-30T05:29:58;9.00;95.00
21169;DHT22;10742;51.816;8.662;2024-01-30T05:33:20;9.00;94.90
21169;DHT22;10742;51.816;8.662;2024-01-30T05:36:40;9.00;95.00
21169;DHT22;10742;51.816;8.662;2024-01-30T05:40:02;9.00;95.00
21169;DHT22;10742;51.816;8.662;2024-01-30T05:43:24;9.10;95.10
21169;DHT22;10742;51.816;8.662;2024-01-30T05:46:45;9.10;95.20
21169;DHT22;10742;51.816;8.662;2024-01-30T05:50:06;9.10;95.20
21169;DHT22;10742;51.816;8.662;2024-01-30T05:53:27;9.10;95.30
21169;DHT22;10742;51.816;8.662;2024-01-30T05:56:49;9.10;95.20
21169;DHT22;10742;51.816;8.662;2024-01-30T06:00:10;9.10;95.20
21169;DHT22;10742;51.816;8.662;2024-01-30T06:03:31;9.10;95.30
21169;DHT22;10742;51.816;8.662;2024-01-30T06:06:52;9.10;95.30
21169;DHT22;10742;51.816;8.662;2024-01-30T06:10:13;9.10;95.40
21169;DHT22;10742;51.816;8.662;2024-01-30T06:13:34;9.10;95.50
21169;DHT22;10742;51.816;8.662;2024-01-30T06:16:55;9.10;95.50
21169;DHT22;10742;51.816;8.662;2024-01-30T06:20:16;9.10;95.50
21169;DHT22;10742;51.816;8.662;2024-01-30T06:23:38;9.10;95.40
21169;DHT22;10742;51.816;8.662;2024-01-30T06:26:59;9.10;95.50
21169;DHT22;10742;51.816;8.662;2024-01-30T06:30:20;9.10;95.50
21169;DHT22;10742;51.816;8.662;2024-01-30T06:33:41;9.10;95.70
21169;DHT22;10742;51.816;8.662;2024-01-30T06:37:03;9.10;95.80
21169;DHT22;10742;51.816;8.662;2024-01-30T06:40:24;9.10;95.80
21169;DHT22;10742;51.816;8.662;2024-01-30T06:43:45;9.10;95.90
21169;DHT22;10742;51.816;8.662;2024-01-30T06:47:07;9.10;95.90
21169;DHT22;10742;51.816;8.662;2024-01-30T06:50:29;9.20;95.90
21169;DHT22;10742;51.816;8.662;2024-01-30T06:53:49;9.20;96.10
21169;DHT22;10742;51.816;8.662;2024-01-30T06:57:10;9.20;96.20
21169;DHT22;10742;51.816;8.662;2024-01-30T07:00:32;9.20;96.20
21169;DHT22;10742;51.816;8.662;2024-01-30T07:03:53;9.30;96.20
21169;DHT22;10742;51.816;8.662;2024-01-30T07:07:14;9.30;96.30
21169;DHT22;10742;51.816;8.662;2024-01-30T07:10:36;9.30;96.20
21169;DHT22;10742;51.816;8.662;2024-01-30T07:13:57;9.40;96.10
21169;DHT22;10742;51.816;8.662;2024-01-30T07:17:18;9.30;96.10
21169;DHT22;10742;51.816;8.662;2024-01-30T07:20:39;9.40;96.00
21169;DHT22;10742;51.816;8.662;2024-01-30T07:24:06;9.40;96.00
21169;DHT22;10742;51.816;8.662;2024-01-30T07:27:29;9.40;96.10
21169;DHT22;10742;51.816;8.662;2024-01-30T07:30:50;9.40;96.50
21169;DHT22;10742;51.816;8.662;2024-01-30T07:34:11;9.40;96.10
21169;DHT22;10742;51.816;8.662;2024-01-30T07:37:33;9.40;96.20
21169;DHT22;10742;51.816;8.662;2024-01-30T07:40:54;9.40;96.20
21169;DHT22;10742;51.816;8.662;2024-01-30T07:44:15;9.40;96.20
21169;DHT22;10742;51.816;8.662;2024-01-30T07:47:36;9.40;96.10
21169;DHT22;10742;51.816;8.662;2024-01-30T07:50:58;9.40;96.10
21169;DHT22;10742;51.816;8.662;2024-01-30T07:54:19;9.40;96.10
21169;DHT22;10742;51.816;8.662;2024-01-30T07:57:40;9.40;96.10
21169;DHT22;10742;51.816;8.662;2024-01-30T08:01:01;9.40;96.00
21169;DHT22;10742;51.816;8.662;2024-01-30T08:04:23;9.40;95.80
21169;DHT22;10742;51.816;8.662;2024-01-30T08:07:44;9.40;95.80
21169;DHT22;10742;51.816;8.662;2024-01-30T08:11:06;9.40;95.90
21169;DHT22;10742;51.816;8.662;2024-01-30T08:14:28;9.40;95.90
21169;DHT22;10742;51.816;8.662;2024-01-30T08:17:49;9.40;96.10
21169;DHT22;10742;51.816;8.662;2024-01-30T08:21:10;9.40;96.20
21169;DHT22;10742;51.816;8.662;2024-01-30T08:24:31;9.40;96.40
21169;DHT22;10742;51.816;8.662;2024-01-30T08:27:52;9.40;96.70
21169;DHT22;10742;51.816;8.662;2024-01-30T08:31:13;9.50;96.90
21169;DHT22;10742;51.816;8.662;2024-01-30T08:34:34;9.50;97.10
21169;DHT22;10742;51.816;8.662;2024-01-30T08:37:55;9.60;97.30
21169;DHT22;10742;51.816;8.662;2024-01-30T08:41:16;9.70;97.40
21169;DHT22;10742;51.816;8.662;2024-01-30T08:44:37;9.80;97.40
21169;DHT22;10742;51.816;8.662;2024-01-30T08:47:59;9.90;97.40
21169;DHT22;10742;51.816;8.662;2024-01-30T08:51:20;10.00;97.40
21169;DHT22;10742;51.816;8.662;2024-01-30T08:54:41;10.10;97.30
21169;DHT22;10742;51.816;8.662;2024-01-30T08:58:02;10.20;97.20
21169;DHT22;10742;51.816;8.662;2024-01-30T09:01:25;10.30;97.10
21169;DHT22;10742;51.816;8.662;2024-01-30T09:04:47;10.30;97.00
21169;DHT22;10742;51.816;8.662;2024-01-30T09:08:08;10.40;97.00
21169;DHT22;10742;51.816;8.662;2024-01-30T09:11:30;10.40;97.00
21169;DHT22;10742;51.816;8.662;2024-01-30T09:14:52;10.50;97.00
21169;DHT22;10742;51.816;8.662;2024-01-30T09:18:13;10.60;97.20
21169;DHT22;10742;51.816;8.662;2024-01-30T09:21:35;10.60;97.30
21169;DHT22;10742;51.816;8.662;2024-01-30T09:24:56;10.70;97.40
21169;DHT22;10742;51.816;8.662;2024-01-30T09:28:17;10.80;97.50
21169;DHT22;10742;51.816;8.662;2024-01-30T09:31:38;10.90;97.60
21169;DHT22;10742;51.816;8.662;2024-01-30T09:34:59;11.00;97.60
21169;DHT22;10742;51.816;8.662;2024-01-30T09:38:21;11.20;97.70
21169;DHT22;10742;51.816;8.662;2024-01-30T09:41:49;11.30;97.80
21169;DHT22;10742;51.816;8.662;2024-01-30T09:45:13;11.40;98.00
21169;DHT22;10742;51.816;8.662;2024-01-30T09:48:35;11.50;97.80
21169;DHT22;10742;51.816;8.662;2024-01-30T09:51:57;11.70;97.80
21169;DHT22;10742;51.816;8.662;2024-01-30T09:55:18;11.80;97.80
21169;DHT22;10742;51.816;8.662;2024-01-30T09:58:39;11.90;97.80
21169;DHT22;10742;51.816;8.662;2024-01-30T10:02:00;12.10;97.80
21169;DHT22;10742;51.816;8.662;2024-01-30T10:05:26;12.30;97.80
21169;DHT22;10742;51.816;8.662;2024-01-30T10:08:47;12.40;97.80
21169;DHT22;10742;51.816;8.662;2024-01-30T10:12:09;12.50;97.60
21169;DHT22;10742;51.816;8.662;2024-01-30T10:15:30;12.60;97.60
21169;DHT22;10742;51.816;8.662;2024-01-30T10:18:51;12.80;97.60
21169;DHT22;10742;51.816;8.662;2024-01-30T10:22:12;12.90;97.50
21169;DHT22;10742;51.816;8.662;2024-01-30T10:25:33;13.00;97.40
21169;DHT22;10742;51.816;8.662;2024-01-30T10:28:55;13.10;97.30
21169;DHT22;10742;51.816;8.662;2024-01-30T10:32:17;13.20;97.20
21169;DHT22;10742;51.816;8.662;2024-01-30T10:35:38;13.30;97.20
21169;DHT22;10742;51.816;8.662;2024-01-30T10:38:59;13.40;97.20
21169;DHT22;10742;51.816;8.662;2024-01-30T10:42:25;13.50;97.20
21169;DHT22;10742;51.816;8.662;2024-01-30T10:45:49;13.60;97.20
21169;DHT22;10742;51.816;8.662;2024-01-30T10:49:14;13.70;97.20
21169;DHT22;10742;51.816;8.662;2024-01-30T10:52:36;13.90;97.10
21169;DHT22;10742;51.816;8.662;2024-01-30T10:55:58;14.00;97.40
21169;DHT22;10742;51.816;8.662;2024-01-30T10:59:22;14.10;96.90
21169;DHT22;10742;51.816;8.662;2024-01-30T11:02:47;14.20;96.90
21169;DHT22;10742;51.816;8.662;2024-01-30T11:06:11;14.30;96.90
21169;DHT22;10742;51.816;8.662;2024-01-30T11:09:36;14.40;96.90
21169;DHT22;10742;51.816;8.662;2024-01-30T11:12:58;14.50;96.80
21169;DHT22;10742;51.816;8.662;2024-01-30T11:16:20;14.70;96.80
21169;DHT22;10742;51.816;8.662;2024-01-30T11:19:41;14.80;96.70
21169;DHT22;10742;51.816;8.662;2024-01-30T11:23:03;14.90;96.60
21169;DHT22;10742;51.816;8.662;2024-01-30T11:26:28;15.00;96.50
21169;DHT22;10742;51.816;8.662;2024-01-30T11:29:50;15.10;96.40
21169;DHT22;10742;51.816;8.662;2024-01-30T11:33:13;15.20;96.30
21169;DHT22;10742;51.816;8.662;2024-01-30T11:36:35;15.20;96.20
21169;DHT22;10742;51.816;8.662;2024-01-30T11:39:58;15.40;96.20
21169;DHT22;10742;51.816;8.662;2024-01-30T11:43:19;15.50;96.20
21169;DHT22;10742;51.816;8.662;2024-01-30T11:46:40;15.60;96.10
21169;DHT22;10742;51.816;8.662;2024-01-30T11:50:02;15.70;96.10
21169;DHT22;10742;51.816;8.662;2024-01-30T11:53:24;15.80;96.50
21169;DHT22;10742;51.816;8.662;2024-01-30T11:56:45;15.90;96.10
21169;DHT22;10742;51.816;8.662;2024-01-30T12:00:13;16.10;96.00
21169;DHT22;10742;51.816;8.662;2024-01-30T12:03:34;16.20;96.00
21169;DHT22;10742;51.816;8.662;2024-01-30T12:06:56;16.30;95.90
21169;DHT22;10742;51.816;8.662;2024-01-30T12:10:17;16.50;95.80
21169;DHT22;10742;51.816;8.662;2024-01-30T12:13:39;16.60;95.60
21169;DHT22;10742;51.816;8.662;2024-01-30T12:17:00;16.70;95.40
21169;DHT22;10742;51.816;8.662;2024-01-30T12:20:21;16.80;95.20
21169;DHT22;10742;51.816;8.662;2024-01-30T12:23:43;16.90;95.00
21169;DHT22;10742;51.816;8.662;2024-01-30T12:27:04;16.90;94.90
21169;DHT22;10742;51.816;8.662;2024-01-30T12:30:26;17.00;94.80
21169;DHT22;10742;51.816;8.662;2024-01-30T12:33:49;17.10;94.70
21169;DHT22;10742;51.816;8.662;2024-01-30T12:37:10;17.10;94.60
21169;DHT22;10742;51.816;8.662;2024-01-30T12:40:33;17.20;94.60
21169;DHT22;10742;51.816;8.662;2024-01-30T12:43:56;17.20;94.50
21169;DHT22;10742;51.816;8.662;2024-01-30T12:47:17;17.30;94.50
21169;DHT22;10742;51.816;8.662;2024-01-30T12:50:38;17.30;94.10
21169;DHT22;10742;51.816;8.662;2024-01-30T12:54:05;17.30;94.20
21169;DHT22;10742;51.816;8.662;2024-01-30T12:57:26;17.40;94.10
21169;DHT22;10742;51.816;8.662;2024-01-30T13:00:47;17.40;94.10
21169;DHT22;10742;51.816;8.662;2024-01-30T13:04:08;17.40;94.10
21169;DHT22;10742;51.816;8.662;2024-01-30T13:07:29;17.30;94.00
21169;DHT22;10742;51.816;8.662;2024-01-30T13:10:51;17.40;94.00
21169;DHT22;10742;51.816;8.662;2024-01-30T13:14:12;17.30;93.90
21169;DHT22;10742;51.816;8.662;2024-01-30T13:17:33;17.40;93.90
21169;DHT22;10742;51.816;8.662;2024-01-30T13:20:55;17.30;93.80
21169;DHT22;10742;51.816;8.662;2024-01-30T13:24:16;17.30;93.80
21169;DHT22;10742;51.816;8.662;2024-01-30T13:27:37;17.30;93.70
21169;DHT22;10742;51.816;8.662;2024-01-30T13:30:58;17.30;93.70
21169;DHT22;10742;51.816;8.662;2024-01-30T13:34:19;17.30;93.60
21169;DHT22;10742;51.816;8.662;2024-01-30T13:37:40;17.20;93.60
21169;DHT22;10742;51.816;8.662;2024-01-30T13:41:03;17.30;93.60
21169;DHT22;10742;51.816;8.662;2024-01-30T13:44:24;17.30;93.60
21169;DHT22;10742;51.816;8.662;2024-01-30T13:47:45;17.30;93.70
21169;DHT22;10742;51.816;8.662;2024-01-30T13:51:08;17.20;93.60
21169;DHT22;10742;51.816;8.662;2024-01-30T13:54:29;17.20;93.60
21169;DHT22;10742;51.816;8.662;2024-01-30T13:57:51;17.20;93.60
21169;DHT22;10742;51.816;8.662;2024-01-30T14:01:13;17.20;93.60
21169;DHT22;10742;51.816;8.662;2024-01-30T14:04:34;17.20;93.70
21169;DHT22;10742;51.816;8.662;2024-01-30T14:07:55;17.20;93.70
21169;DHT22;10742;51.816;8.662;2024-01-30T14:11:17;17.10;93.80
21169;DHT22;10742;51.816;8.662;2024-01-30T14:14:38;17.10;93.90
21169;DHT22;10742;51.816;8.662;2024-01-30T14:17:59;17.10;93.80
21169;DHT22;10742;51.816;8.662;2024-01-30T14:21:20;17.20;93.90
21169;DHT22;10742;51.816;8.662;2024-01-30T14:24:41;17.20;93.80
21169;DHT22;10742;51.816;8.662;2024-01-30T14:28:02;17.20;93.80
21169;DHT22;10742;51.816;8.662;2024-01-30T14:31:24;17.20;93.80
21169;DHT22;10742;51.816;8.662;2024-01-30T14:34:46;17.10;93.70
21169;DHT22;10742;51.816;8.662;2024-01-30T14:38:07;17.10;93.80
21169;DHT22;10742;51.816;8.662;2024-01-30T14:41:28;17.10;93.80
21169;DHT22;10742;51.816;8.662;2024-01-30T14:44:50;17.00;93.90
21169;DHT22;10742;51.816;8.662;2024-01-30T14:48:11;17.00;93.90
21169;DHT22;10742;51.816;8.662;2024-01-30T14:51:32;16.90;94.10
21169;DHT22;10742;51.816;8.662;2024-01-30T14:54:53;16.90;94.20
21169;DHT22;10742;51.816;8.662;2024-01-30T14:58:14;16.90;94.30
21169;DHT22;10742;51.816;8.662;2024-01-30T15:01:36;16.80;94.40
21169;DHT22;10742;51.816;8.662;2024-01-30T15:04:57;16.70;94.40
21169;DHT22;10742;51.816;8.662;2024-01-30T15:08:18;16.70;94.60
21169;DHT22;10742;51.816;8.662;2024-01-30T15:11:39;16.60;94.70
21169;DHT22;10742;51.816;8.662;2024-01-30T15:15:00;16.60;94.70
21169;DHT22;10742;51.816;8.662;2024-01-30T15:18:21;16.60;94.90
21169;DHT22;10742;51.816;8.662;2024-01-30T15:21:42;16.50;94.90
21169;DHT22;10742;51.816;8.662;2024-01-30T15:25:04;16.50;95.00
21169;DHT22;10742;51.816;8.662;2024-01-30T15:28:36;16.40;95.00
21169;DHT22;10742;51.816;8.662;2024-01-30T15:31:58;16.40;95.30
21169;DHT22;10742;51.816;8.662;2024-01-30T15:35:19;16.40;95.20
21169;DHT22;10742;51.816;8.662;2024-01-30T15:38:41;16.30;95.20
21169;DHT22;10742;51.816;8.662;2024-01-30T15:42:02;16.30;95.30
21169;DHT22;10742;51.816;8.662;2024-01-30T15:45:24;16.30;95.30
21169;DHT22;10742;51.816;8.662;2024-01-30T15:48:46;16.20;95.40
21169;DHT22;10742;51.816;8.662;2024-01-30T15:52:08;16.20;95.50
21169;DHT22;10742;51.816;8.662;2024-01-30T15:55:34;16.20;95.50
21169;DHT22;10742;51.816;8.662;2024-01-30T15:58:56;16.20;95.50
21169;DHT22;10742;51.816;8.662;2024-01-30T16:02:18;16.20;95.50
21169;DHT22;10742;51.816;8.662;2024-01-30T16:05:41;16.20;95.60
21169;DHT22;10742;51.816;8.662;2024-01-30T16:09:03;16.20;95.60
21169;DHT22;10742;51.816;8.662;2024-01-30T16:12:24;16.00;96.40
21169;DHT22;10742;51.816;8.662;2024-01-30T16:15:45;15.60;97.60
21169;DHT22;10742;51.816;8.662;2024-01-30T16:19:06;15.70;97.20
21169;DHT22;10742;51.816;8.662;2024-01-30T16:22:27;15.90;96.70
21169;DHT22;10742;51.816;8.662;2024-01-30T16:25:49;15.90;96.30
21169;DHT22;10742;51.816;8.662;2024-01-30T16:29:10;16.00;96.10
21169;DHT22;10742;51.816;8.662;2024-01-30T16:32:31;16.00;96.00
21169;DHT22;10742;51.816;8.662;2024-01-30T16:35:54;16.00;95.90
21169;DHT22;10742;51.816;8.662;2024-01-30T16:39:15;15.90;95.80
21169;DHT22;10742;51.816;8.662;2024-01-30T16:42:36;15.90;95.80
21169;DHT22;10742;51.816;8.662;2024-01-30T16:45:57;15.80;95.80
21169;DHT22;10742;51.816;8.662;2024-01-30T16:49:19;15.80;95.80
21169;DHT22;10742;51.816;8.662;2024-01-30T16:52:40;15.70;95.80
21169;DHT22;10742;51.816;8.662;2024-01-30T16:56:02;15.70;95.80
21169;DHT22;10742;51.816;8.662;2024-01-30T16:59:23;15.60;95.80
21169;DHT22;10742;51.816;8.662;2024-01-30T17:02:44;15.50;95.90
21169;DHT22;10742;51.816;8.662;2024-01-30T17:06:06;15.50;95.90
21169;DHT22;10742;51.816;8.662;2024-01-30T17:09:29;15.40;95.90
21169;DHT22;10742;51.816;8.662;2024-01-30T17:12:50;15.40;95.90
21169;DHT22;10742;51.816;8.662;2024-01-30T17:16:11;15.30;96.20
21169;DHT22;10742;51.816;8.662;2024-01-30T17:19:32;15.30;95.90
21169;DHT22;10742;51.816;8.662;2024-01-30T17:22:53;15.20;96.00
21169;DHT22;10742;51.816;8.662;2024-01-30T17:26:14;15.20;96.10
21169;DHT22;10742;51.816;8.662;2024-01-30T17:29:36;15.20;96.10
21169;DHT22;10742;51.816;8.662;2024-01-30T17:32:57;15.10;96.20
21169;DHT22;10742;51.816;8.662;2024-01-30T17:36:21;15.10;96.20
21169;DHT22;10742;51.816;8.662;2024-01-30T17:39:43;15.20;96.20
21169;DHT22;10742;51.816;8.662;2024-01-30T17:43:05;15.10;96.20
21169;DHT22;10742;51.816;8.662;2024-01-30T17:46:26;15.10;96.10
21169;DHT22;10742;51.816;8.662;2024-01-30T17:49:47;15.00;96.00
21169;DHT22;10742;51.816;8.662;2024-01-30T17:53:08;15.00;95.90
21169;DHT22;10742;51.816;8.662;2024-01-30T17:56:29;15.00;95.60
21169;DHT22;10742;51.816;8.662;2024-01-30T17:59:50;15.00;95.30
21169;DHT22;10742;51.816;8.662;2024-01-30T18:03:11;14.90;95.10
21169;DHT22;10742;51.816;8.662;2024-01-30T18:06:32;14.90;94.90
21169;DHT22;10742;51.816;8.662;2024-01-30T18:09:53;14.80;94.80
21169;DHT22;10742;51.816;8.662;2024-01-30T18:13:14;14.70;94.50
21169;DHT22;10742;51.816;8.662;2024-01-30T18:16:37;14.70;94.40
21169;DHT22;10742;51.816;8.662;2024-01-30T18:19:58;14.60;94.20
21169;DHT22;10742;51.816;8.662;2024-01-30T18:23:20;14.60;94.10
21169;DHT22;10742;51.816;8.662;2024-01-30T18:26:41;14.60;94.00
21169;DHT22;10742;51.816;8.662;2024-01-30T18:30:03;14.50;93.90
21169;DHT22;10742;51.816;8.662;2024-01-30T18:33:25;14.50;93.80
21169;DHT22;10742;51.816;8.662;2024-01-30T18:36:47;14.40;93.70
21169;DHT22;10742;51.816;8.662;2024-01-30T18:40:08;14.40;93.50
21169;DHT22;10742;51.816;8.662;2024-01-30T18:43:30;14.40;93.50
21169;DHT22;10742;51.816;8.662;2024-01-30T18:46:52;14.30;93.30
21169;DHT22;10742;51.816;8.662;2024-01-30T18:50:13;14.20;93.20
21169;DHT22;10742;51.816;8.662;2024-01-30T18:53:34;14.20;93.10
21169;DHT22;10742;51.816;8.662;2024-01-30T18:56:55;14.10;93.00
21169;DHT22;10742;51.816;8.662;2024-01-30T19:00:16;14.00;93.00
21169;DHT22;10742;51.816;8.662;2024-01-30T19:03:37;14.00;92.90
21169;DHT22;10742;51.816;8.662;2024-01-30T19:06:58;13.90;92.80
21169;DHT22;10742;51.816;8.662;2024-01-30T19:10:19;13.80;92.80
21169;DHT22;10742;51.816;8.662;2024-01-30T19:13:45;13.70;92.70
21169;DHT22;10742;51.816;8.662;2024-01-30T19:17:06;13.70;92.70
21169;DHT22;10742;51.816;8.662;2024-01-30T19:20:27;13.60;92.80
21169;DHT22;10742;51.816;8.662;2024-01-30T19:23:48;13.60;92.80
21169;DHT22;10742;51.816;8.662;2024-01-30T19:27:09;13.50;92.80
21169;DHT22;10742;51.816;8.662;2024-01-30T19:30:30;13.50;92.90
21169;DHT22;10742;51.816;8.662;2024-01-30T19:33:51;13.50;92.90
21169;DHT22;10742;51.816;8.662;2024-01-30T19:37:12;13.50;93.00
21169;DHT22;10742;51.816;8.662;2024-01-30T19:40:33;13.40;93.00
21169;DHT22;10742;51.816;8.662;2024-01-30T19:43:54;13.40;93.00
21169;DHT22;10742;51.816;8.662;2024-01-30T19:47:16;13.40;93.10
21169;DHT22;10742;51.816;8.662;2024-01-30T19:50:37;13.50;93.10
21169;DHT22;10742;51.816;8.662;2024-01-30T19:53:59;13.40;93.20
21169;DHT22;10742;51.816;8.662;2024-01-30T19:57:19;13.40;93.20
21169;DHT22;10742;51.816;8.662;2024-01-30T20:00:40;13.40;93.30
21169;DHT22;10742;51.816;8.662;2024-01-30T20:04:01;13.40;93.30
21169;DHT22;10742;51.816;8.662;2024-01-30T20:07:23;13.40;93.40
21169;DHT22;10742;51.816;8.662;2024-01-30T20:10:44;13.40;93.60
21169;DHT22;10742;51.816;8.662;2024-01-30T20:14:06;13.40;93.70
21169;DHT22;10742;51.816;8.662;2024-01-30T20:17:27;13.40;93.90
21169;DHT22;10742;51.816;8.662;2024-01-30T20:20:48;13.40;93.90
21169;DHT22;10742;51.816;8.662;2024-01-30T20:24:09;13.40;94.00
21169;DHT22;10742;51.816;8.662;2024-01-30T20:27:30;13.40;94.20
21169;DHT22;10742;51.816;8.662;2024-01-30T20:30:53;13.30;94.20
21169;DHT22;10742;51.816;8.662;2024-01-30T20:34:14;13.30;94.30
21169;DHT22;10742;51.816;8.662;2024-01-30T20:37:37;13.30;94.40
21169;DHT22;10742;51.816;8.662;2024-01-30T20:40:59;13.30;94.50
21169;DHT22;10742;51.816;8.662;2024-01-30T20:44:20;13.20;94.50
21169;DHT22;10742;51.816;8.662;2024-01-30T20:47:41;13.20;94.60
21169;DHT22;10742;51.816;8.662;2024-01-30T20:51:03;13.20;94.70
21169;DHT22;10742;51.816;8.662;2024-01-30T20:54:24;13.20;94.80
21169;DHT22;10742;51.816;8.662;2024-01-30T20:57:45;13.20;94.80
21169;DHT22;10742;51.816;8.662;2024-01-30T21:01:06;13.20;94.80
21169;DHT22;10742;51.816;8.662;2024-01-30T21:04:28;13.20;94.80
21169;DHT22;10742;51.816;8.662;2024-01-30T21:07:49;13.20;94.90
21169;DHT22;10742;51.816;8.662;2024-01-30T21:11:11;13.10;94.90
21169;DHT22;10742;51.816;8.662;2024-01-30T21:14:32;13.10;95.00
21169;DHT22;10742;51.816;8.662;2024-01-30T21:17:53;13.10;95.00
21169;DHT22;10742;51.816;8.662;2024-01-30T21:21:16;13.10;95.10